Novgorod, Russia
Current Conditions -  °F | °C
As of 9:30 AM on Monday 24 Nov 2014 (Local Time) from ULLI Reporting Station
Overcast Overcast  
Wind Chill: 25°   Ceiling: 400
Heat Index: 30°   Visibility: 5mi
Dew Point: 30°   Wind: 4mph
Humidity: 100%   Direction: 180°S
Pressure: 30.56"   Gusts: NA
Location:  58.55°N, 31.28°E
Report Text: ULLI 240630Z 18002MPS 8000 OVC004 M01/M01 Q1035 88290050 NOSIGRMK QBB120 OBST OBSC
Loading
Personal Weather Stations






























Interactive Weather Map New forecast layout! Learn more

10-Day Weather Forecast

Advertisements
Track Severe Weather on mobile